Map

Track Data

SID SEASON NUMBER BASIN SUBBASIN NAME ISO_TIME NATURE LAT LON WMO_WIND WMO_PRES WMO_AGENCY TRACK_TYPE DIST2LAND LANDFALL IFLAG USA_AGENCY USA_ATCF_ID USA_LAT USA_LON USA_RECORD USA_STATUS USA_WIND USA_PRES USA_SSHS USA_R34_NE USA_R34_SE USA_R34_SW USA_R34_NW USA_R50_NE USA_R50_SE USA_R50_SW USA_R50_NW USA_R64_NE USA_R64_SE USA_R64_SW USA_R64_NW USA_POCI USA_ROCI USA_RMW USA_EYE TOKYO_LAT TOKYO_LON TOKYO_GRADE TOKYO_WIND TOKYO_PRES TOKYO_R50_DIR TOKYO_R50_LONG TOKYO_R50_SHORT TOKYO_R30_DIR TOKYO_R30_LONG TOKYO_R30_SHORT TOKYO_LAND CMA_LAT CMA_LON CMA_CAT CMA_WIND CMA_PRES HKO_LAT HKO_LON HKO_CAT HKO_WIND HKO_PRES NEWDELHI_LAT NEWDELHI_LON NEWDELHI_GRADE NEWDELHI_WIND NEWDELHI_PRES NEWDELHI_CI NEWDELHI_DP NEWDELHI_POCI REUNION_LAT REUNION_LON REUNION_TYPE REUNION_WIND REUNION_PRES REUNION_TNUM REUNION_CI REUNION_RMW REUNION_R34_NE REUNION_R34_SE REUNION_R34_SW REUNION_R34_NW REUNION_R50_NE REUNION_R50_SE REUNION_R50_SW REUNION_R50_NW REUNION_R64_NE REUNION_R64_SE REUNION_R64_SW REUNION_R64_NW BOM_LAT BOM_LON BOM_TYPE BOM_WIND BOM_PRES BOM_TNUM BOM_CI BOM_RMW BOM_R34_NE BOM_R34_SE BOM_R34_SW BOM_R34_NW BOM_R50_NE BOM_R50_SE BOM_R50_SW BOM_R50_NW BOM_R64_NE BOM_R64_SE BOM_R64_SW BOM_R64_NW BOM_ROCI BOM_POCI BOM_EYE BOM_POS_METHOD BOM_PRES_METHOD NADI_LAT NADI_LON NADI_CAT NADI_WIND NADI_PRES WELLINGTON_LAT WELLINGTON_LON WELLINGTON_WIND WELLINGTON_PRES DS824_LAT DS824_LON DS824_STAGE DS824_WIND DS824_PRES TD9636_LAT TD9636_LON TD9636_STAGE TD9636_WIND TD9636_PRES TD9635_LAT TD9635_LON TD9635_WIND TD9635_PRES TD9635_ROCI NEUMANN_LAT NEUMANN_LON NEUMANN_CLASS NEUMANN_WIND NEUMANN_PRES MLC_LAT MLC_LON MLC_CLASS MLC_WIND MLC_PRES USA_GUST BOM_GUST BOM_GUST_PER REUNION_GUST REUNION_GUST_PER USA_SEAHGT USA_SEARAD_NE USA_SEARAD_SE USA_SEARAD_SW USA_SEARAD_NW STORM_SPEED STORM_DIR
1921038S12061 1921 5 SI MM NOT_NAMED 1921-02-06 18:00:00 NR -11.8000 61.0000 main 993 896 __________O___ -1 -11.8000 61.0000 2 24 238
1921038S12061 1921 5 SI MM NOT_NAMED 1921-02-06 21:00:00 NR -12.4418 59.9636 main 896 779 __________P___ -1 -12.4418 59.9636 2 28 237
1921038S12061 1921 5 SI MM NOT_NAMED 1921-02-07 00:00:00 TS -13.2839 58.6166 main 767 705 _________OP___ -1 -14.0000 57.5000 TC 35 -13.0452 58.9888 2 25 237
1921038S12061 1921 5 SI MM NOT_NAMED 1921-02-07 03:00:00 TS -13.7838 57.8630 main 705 660 _________PP___ -1 -14.2000 57.3001 TC 35 -13.5757 58.1445 2 15 235
1921038S12061 1921 5 SI MM NOT_NAMED 1921-02-07 06:00:00 TS -14.1714 57.3286 main 660 639 _________OO___ -1 -14.4000 57.1000 TC 35 -14.0000 57.5000 2 11 231
1921038S12061 1921 5 SI MM NOT_NAMED 1921-02-07 09:00:00 TS -14.4493 56.9998 main 640 618 _________PP___ -1 -14.6000 56.9000 TC 35 -14.2985 57.0997 2 7 227
1921038S12061 1921 5 SI MM NOT_NAMED 1921-02-07 12:00:00 TS -14.6513 56.7937 main 608 599 _________OP___ -1 -14.8000 56.7000 TC 35 -14.5026 56.8875 2 5 223
1921038S12061 1921 5 SI MM NOT_NAMED 1921-02-07 15:00:00 TS -14.8277 56.6370 main 600 580 _________PP___ -1 -15.0000 56.4925 TC 35 -14.6555 56.7816 2 5 219
1921038S12061 1921 5 SI MM NOT_NAMED 1921-02-07 18:00:00 TS -15.0000 56.5000 main 580 560 _________OO___ -1 -15.2000 56.3000 TC 35 -14.8000 56.7000 2 5 219
1921038S12061 1921 5 SI MM NOT_NAMED 1921-02-07 21:00:00 TS -15.1901 56.3338 main 562 543 _________PP___ -1 -15.3925 56.1499 TC 35 -14.9877 56.5176 2 5 219
1921038S12061 1921 5 SI MM NOT_NAMED 1921-02-08 00:00:00 TS -15.3887 56.1711 main 543 527 _________OP___ -1 -15.6000 56.0000 TC 35 -15.1774 56.3422 2 5 219
1921038S12061 1921 5 SI MM NOT_NAMED 1921-02-08 03:00:00 TS -15.6067 55.9854 main 527 510 _________PP___ -1 -15.8350 55.8000 TC 35 -15.3784 56.1707 2 6 218
1921038S12061 1921 5 SI MM NOT_NAMED 1921-02-08 06:00:00 TS -15.8500 55.8000 main 513 486 _________OO___ -1 -16.1000 55.6000 TC 35 -15.6000 56.0000 2 6 213
1921038S12061 1921 5 SI MM NOT_NAMED 1921-02-08 09:00:00 TS -16.1189 55.6374 main 490 464 _________PP___ -1 -16.3925 55.4499 TC 35 -15.8453 55.8249 2 6 209
1921038S12061 1921 5 SI MM NOT_NAMED 1921-02-08 12:00:00 TS -16.4062 55.4749 main 464 445 _________OP___ -1 -16.7000 55.3000 TC 35 -16.1125 55.6498 2 7 210
1921038S12061 1921 5 SI MM NOT_NAMED 1921-02-08 15:00:00 TS -16.6955 55.2874 main 445 429 _________PP___ -1 -16.9925 55.1000 TC 35 -16.3984 55.4748 2 7 211
1921038S12061 1921 5 SI MM NOT_NAMED 1921-02-08 18:00:00 TS -17.0000 55.1000 main 429 409 _________OO___ -1 -17.3000 54.9000 TC 35 -16.7000 55.3000 2 8 209
1921038S12061 1921 5 SI MM NOT_NAMED 1921-02-08 21:00:00 TS -17.3578 54.9105 main 404 372 _________PP___ -1 -17.6725 54.7201 TC 35 -17.0432 55.1009 2 8 205
1921038S12061 1921 5 SI MM NOT_NAMED 1921-02-09 00:00:00 TS -17.6975 54.7527 main 372 352 _________OP___ -1 -18.0000 54.6000 TC 35 -17.3951 54.9055 2 6 202
1921038S12061 1921 5 SI MM NOT_NAMED 1921-02-09 03:00:00 TS -17.9560 54.6585 main 341 332 _________PP___ -1 -18.1875 54.5849 TC 35 -17.7244 54.7322 2 5 198
1921038S12061 1921 5 SI MM NOT_NAMED 1921-02-09 06:00:00 TS -18.1500 54.6000 main 332 310 _________OO___ -1 -18.3000 54.6000 TC 35 -18.0000 54.6000 2 4 197
1921038S12061 1921 5 SI MM NOT_NAMED 1921-02-09 09:00:00 TS -18.2949 54.5465 main 313 302 _________PP___ -1 -18.4075 54.5575 TC 35 -18.1824 54.5355 2 3 200
1921038S12061 1921 5 SI MM NOT_NAMED 1921-02-09 12:00:00 TS -18.4049 54.5060 main 302 291 _________OP___ -1 -18.5000 54.5000 TC 35 -18.3099 54.5120 2 2 199
1921038S12061 1921 5 SI MM NOT_NAMED 1921-02-09 15:00:00 TS -18.5000 54.4788 main 291 281 _________PP___ -1 -18.5925 54.4500 TC 35 -18.4074 54.5075 2 2 195
1921038S12061 1921 5 SI MM NOT_NAMED 1921-02-09 18:00:00 TS -18.6000 54.4500 main 281 273 _________OO___ -1 -18.7000 54.4000 TC 35 -18.5000 54.5000 2 3 196
1921038S12061 1921 5 SI MM NOT_NAMED 1921-02-09 21:00:00 TS -18.7375 54.4016 main 273 253 _________PP___ -1 -18.8500 54.3500 TC 35 -18.6250 54.4531 2 3 199
1921038S12061 1921 5 SI MM NOT_NAMED 1921-02-10 00:00:00 TS -18.8750 54.3500 main 253 246 _________OP___ -1 -19.0000 54.3000 TC 35 -18.7500 54.4000 2 3 203
1921038S12061 1921 5 SI MM NOT_NAMED 1921-02-10 03:00:00 TS -18.9875 54.2947 main 246 236 _________PP___ -1 -19.1000 54.2425 TC 35 -18.8750 54.3469 2 2 203
1921038S12061 1921 5 SI MM NOT_NAMED 1921-02-10 06:00:00 TS -19.1000 54.2500 main 236 231 _________OO___ -1 -19.2000 54.2000 TC 35 -19.0000 54.3000 2 3 196
1921038S12061 1921 5 SI MM NOT_NAMED 1921-02-10 09:00:00 TS -19.2395 54.2281 main 231 212 _________PP___ -1 -19.3500 54.1925 TC 35 -19.1291 54.2637 2 3 189
1921038S12061 1921 5 SI MM NOT_NAMED 1921-02-10 12:00:00 TS -19.3787 54.2175 main 212 203 _________OP___ -1 -19.5000 54.2000 TC 35 -19.2575 54.2350 2 3 185
1921038S12061 1921 5 SI MM NOT_NAMED 1921-02-10 15:00:00 TS -19.4948 54.2069 main 203 194 _________PP___ -1 -19.6075 54.2000 TC 35 -19.3822 54.2137 2 2 0
1921038S12061 1921 5 SI MM NOT_NAMED 1921-02-10 18:00:00 TS -19.6000 54.2000 main 194 185 _________OO___ -1 -19.7000 54.2000 TC 35 -19.5000 54.2000 2 2 184
1921038S12061 1921 5 SI MM NOT_NAMED 1921-02-10 21:00:00 TS -19.7036 54.1964 main 185 176 _________PP___ -1 -19.8000 54.2000 TC 35 -19.6072 54.1928 2 2 188
1921038S12061 1921 5 SI MM NOT_NAMED 1921-02-11 00:00:00 TS -19.8037 54.1962 main 176 168 _________OP___ -1 -19.9000 54.2000 TC 35 -19.7075 54.1925 2 2 0
1921038S12061 1921 5 SI MM NOT_NAMED 1921-02-11 03:00:00 TS -19.9020 54.1980 main 168 160 _________PP___ -1 -20.0000 54.2000 TC 35 -19.8041 54.1959 2 2 173
1921038S12061 1921 5 SI MM NOT_NAMED 1921-02-11 06:00:00 TS -20.0000 54.2000 main 160 152 _________OO___ -1 -20.1000 54.2000 TC 35 -19.9000 54.2000 2 2 0
1921038S12061 1921 5 SI MM NOT_NAMED 1921-02-11 09:00:00 TS -20.1078 54.1980 main 152 144 _________PP___ -1 -20.2075 54.2000 TC 35 -20.0081 54.1959 2 2 188
1921038S12061 1921 5 SI MM NOT_NAMED 1921-02-11 12:00:00 TS -20.2075 54.1963 main 144 137 _________OP___ -1 -20.3000 54.2000 TC 35 -20.1150 54.1925 2 2 0
1921038S12061 1921 5 SI MM NOT_NAMED 1921-02-11 15:00:00 TS -20.2859 54.1927 main 137 137 _________PP___ -1 -20.3575 54.1925 TC 35 -20.2144 54.1928 2 1 177
1921038S12061 1921 5 SI MM NOT_NAMED 1921-02-11 18:00:00 TS -20.3500 54.2000 main 137 130 _________OO___ -1 -20.4000 54.2000 TC 35 -20.3000 54.2000 2 1 158
1921038S12061 1921 5 SI MM NOT_NAMED 1921-02-11 21:00:00 TS -20.3895 54.2282 main 130 121 _________PP___ -1 -20.4350 54.2425 TC 35 -20.3441 54.2138 2 1 142
1921038S12061 1921 5 SI MM NOT_NAMED 1921-02-12 00:00:00 TS -20.4387 54.2675 main 121 115 _________OP___ -1 -20.5000 54.3000 TC 35 -20.3775 54.2351 2 2 152
1921038S12061 1921 5 SI MM NOT_NAMED 1921-02-12 03:00:00 TS -20.5248 54.3069 main 115 108 _________PP___ -1 -20.6275 54.3500 TC 35 -20.4222 54.2638 2 2 158
1921038S12061 1921 5 SI MM NOT_NAMED 1921-02-12 06:00:00 TS -20.6500 54.3500 main 100 89 _________OO___ -1 -20.8000 54.4000 TC 35 -20.5000 54.3000 2 3 164
1921038S12061 1921 5 SI MM NOT_NAMED 1921-02-12 09:00:00 TS -20.8274 54.3984 main 89 83 _________PP___ -1 -21.0075 54.4500 TC 35 -20.6472 54.3468 2 4 165
1921038S12061 1921 5 SI MM NOT_NAMED 1921-02-12 12:00:00 TS -21.0138 54.4499 main 83 72 _________OP___ -1 -21.2000 54.5000 TC 35 -20.8275 54.3999 2 4 164
1921038S12061 1921 5 SI MM NOT_NAMED 1921-02-12 15:00:00 TS -21.1633 54.5053 main 73 73 _________PP___ -1 -21.3075 54.5575 TC 35 -21.0191 54.4530 2 3 162
1921038S12061 1921 5 SI MM NOT_NAMED 1921-02-12 18:00:00 TS -21.3000 54.5500 main 66 66 _________OO___ -1 -21.4000 54.6000 TC 35 -21.2000 54.5000 2 3 170
1921038S12061 1921 5 SI MM NOT_NAMED 1921-02-12 21:00:00 TS -21.4096 54.5467 main 79 75 _________PP___ -1 -21.5125 54.5852 TC 35 -21.3068 54.5082 2 3 175
1921038S12061 1921 5 SI MM NOT_NAMED 1921-02-13 00:00:00 TS -21.5524 54.5566 main 79 79 _________OP___ -1 -21.7000 54.6000 TC 35 -21.4049 54.5132 2 4 168
1921038S12061 1921 5 SI MM NOT_NAMED 1921-02-13 03:00:00 TS -21.7765 54.6282 main 91 83 _________PP___ -1 -22.0275 54.7199 TC 35 -21.5255 54.5365 2 5 160
1921038S12061 1921 5 SI MM NOT_NAMED 1921-02-13 06:00:00 TS -22.0500 54.7500 main 93 99 _________OO___ -1 -22.4000 54.9000 TC 35 -21.7000 54.6000 2 6 156
1921038S12061 1921 5 SI MM NOT_NAMED 1921-02-13 09:00:00 TS -22.3435 54.8983 main 119 119 _________PP___ -1 -22.7075 55.0851 TC 35 -21.9796 54.7114 2 7 153
1921038S12061 1921 5 SI MM NOT_NAMED 1921-02-13 12:00:00 TS -22.6562 55.0837 main 154 154 _________OP___ -1 -23.0000 55.3000 TC 35 -22.3123 54.8674 2 7 150
1921038S12061 1921 5 SI MM NOT_NAMED 1921-02-13 15:00:00 TS -22.9894 55.2961 main 181 181 _________PP___ -1 -23.3149 55.5276 TC 35 -22.6639 55.0646 2 7 147
1921038S12061 1921 5 SI MM NOT_NAMED 1921-02-13 18:00:00 TS -23.2571 55.5143 main 212 212 _________OO___ -1 -23.6000 55.8000 TC 35 -23.0000 55.3000 2 6 139
1921038S12061 1921 5 SI MM NOT_NAMED 1921-02-13 21:00:00 TS -23.4695 55.7569 main 235 235 _________PP___ -1 -23.8202 56.1323 TC 35 -23.2941 55.5691 2 6 131
1921038S12061 1921 5 SI MM NOT_NAMED 1921-02-14 00:00:00 TS -23.6629 56.0233 main 260 260 _________OP___ -1 -24.0000 56.5000 TC 35 -23.5506 55.8644 2 5 129
1921038S12061 1921 5 SI MM NOT_NAMED 1921-02-14 03:00:00 NR -23.7818 56.1775 main 275 275 __________P___ -1 TC -23.7818 56.1775 2 6 128
1921038S12061 1921 5 SI MM NOT_NAMED 1921-02-14 06:00:00 NR -24.0000 56.5000 main 304 __________O___ -1 -24.0000 56.5000 2 7 127

About IBTrACS Database

This database is a web-friendly format of International Best Track Archive for Climate Stewardship (IBTrACS), a global best track data archive curated by NOAA dating back to 1842.

Updated: 2021-12-03